CES796 WMKK-ZBAD
Flight info
| Callsign | CES796 |
|---|---|
| Flight time | 5h 52m |
| Altitude | 35000 |
| Route | PIBOS1D PIBOS R208 IGARI/K0865F350 M765 BITOD L637 TSH/K0820F270 W1 BMT/K0867F350 W12 NOBID/K0857F370 W12 PCA G221 BUNTA A1 IKELA/N0463F370 P901 IDOSI DCT CH DCT BEKOL/K0865S1100 A461 YIN/K0856S1130 A461 WXI DCT AVBOX AVBOX5L |
| Aircraft | A20N/M-RVSMW/W |
Departure
| Time | 2026-04-16 08:09 |
|---|---|
| Airport | Kuala Lumpur International Airport (WMKK) |
Arrival
| Time | 2026-04-16 14:01 |
|---|---|
| Airport | Beijing Daxing International Airport (ZBAD) |
| Time | Latitude | Longitude | Altitude | Speed | Heading |
|---|---|---|---|---|---|
| 2026-04-16 07:39 | 2.74956 | 101.71464 | 75 ft | 0 kts | 146° |
| 2026-04-16 07:57 | 2.74958 | 101.71462 | 75 ft | 1 kts | 147° |
| 2026-04-16 07:57 | 2.74970 | 101.71454 | 75 ft | 2 kts | 146° |
| 2026-04-16 07:57 | 2.74983 | 101.71446 | 75 ft | 2 kts | 146° |
| 2026-04-16 07:57 | 2.74995 | 101.71438 | 75 ft | 2 kts | 146° |
| 2026-04-16 07:58 | 2.75007 | 101.71429 | 75 ft | 2 kts | 147° |
| 2026-04-16 07:58 | 2.75019 | 101.71420 | 75 ft | 2 kts | 119° |
| 2026-04-16 07:58 | 2.75024 | 101.71406 | 75 ft | 2 kts | 97° |
| 2026-04-16 07:58 | 2.75026 | 101.71390 | 75 ft | 2 kts | 121° |
| 2026-04-16 07:59 | 2.75036 | 101.71380 | 75 ft | 2 kts | 150° |
| 2026-04-16 07:59 | 2.75046 | 101.71375 | 75 ft | 0 kts | 148° |
| 2026-04-16 07:59 | 2.75048 | 101.71374 | 75 ft | 0 kts | 146° |
| 2026-04-16 08:03 | 2.75047 | 101.71374 | 75 ft | 0 kts | 146° |
| 2026-04-16 08:04 | 2.75035 | 101.71382 | 75 ft | 5 kts | 144° |
| 2026-04-16 08:04 | 2.75036 | 101.71434 | 75 ft | 11 kts | 63° |
| 2026-04-16 08:04 | 2.75088 | 101.71513 | 75 ft | 14 kts | 57° |
| 2026-04-16 08:04 | 2.75142 | 101.71593 | 75 ft | 11 kts | 56° |
| 2026-04-16 08:05 | 2.75133 | 101.71662 | 75 ft | 11 kts | 133° |
| 2026-04-16 08:05 | 2.75070 | 101.71707 | 75 ft | 11 kts | 146° |
| 2026-04-16 08:05 | 2.75003 | 101.71752 | 75 ft | 11 kts | 147° |
| 2026-04-16 08:05 | 2.74935 | 101.71797 | 75 ft | 11 kts | 146° |
| 2026-04-16 08:06 | 2.74866 | 101.71845 | 75 ft | 12 kts | 145° |
| 2026-04-16 08:06 | 2.74795 | 101.71892 | 75 ft | 12 kts | 147° |
| 2026-04-16 08:06 | 2.74728 | 101.71937 | 75 ft | 8 kts | 146° |
| 2026-04-16 08:06 | 2.74703 | 101.71986 | 75 ft | 8 kts | 79° |
| 2026-04-16 08:07 | 2.74736 | 101.72039 | 75 ft | 9 kts | 56° |
| 2026-04-16 08:07 | 2.74771 | 101.72092 | 75 ft | 9 kts | 57° |
| 2026-04-16 08:07 | 2.74809 | 101.72147 | 75 ft | 10 kts | 56° |
| 2026-04-16 08:07 | 2.74851 | 101.72187 | 75 ft | 8 kts | 5° |
| 2026-04-16 08:08 | 2.74906 | 101.72164 | 75 ft | 9 kts | 327° |
| 2026-04-16 08:08 | 2.75083 | 101.72045 | 75 ft | 62 kts | 326° |
| 2026-04-16 08:08 | 2.75620 | 101.71685 | 75 ft | 121 kts | 326° |
| 2026-04-16 08:08 | 2.76463 | 101.71122 | 76 ft | 168 kts | 327° |
| 2026-04-16 08:09 | 2.77461 | 101.70460 | 464 ft | 170 kts | 326° |
| 2026-04-16 08:09 | 2.78411 | 101.69789 | 918 ft | 165 kts | 327° |
| 2026-04-16 08:09 | 2.79390 | 101.69126 | 1144 ft | 173 kts | 328° |
| 2026-04-16 08:09 | 2.80486 | 101.68553 | 1340 ft | 182 kts | 340° |
| 2026-04-16 08:10 | 2.81734 | 101.68175 | 1543 ft | 191 kts | 345° |
| 2026-04-16 08:10 | 2.83049 | 101.67761 | 1751 ft | 201 kts | 343° |
| 2026-04-16 08:10 | 2.84411 | 101.67303 | 1964 ft | 212 kts | 342° |
| 2026-04-16 08:10 | 2.85832 | 101.66807 | 1995 ft | 215 kts | 342° |
| 2026-04-16 08:11 | 2.87236 | 101.66305 | 1998 ft | 215 kts | 341° |
| 2026-04-16 08:11 | 2.88651 | 101.65798 | 1959 ft | 226 kts | 341° |
| 2026-04-16 08:11 | 2.90252 | 101.65233 | 2024 ft | 248 kts | 345° |
| 2026-04-16 08:11 | 2.91980 | 101.65130 | 2287 ft | 257 kts | 18° |
| 2026-04-16 08:12 | 2.93596 | 101.65949 | 2643 ft | 264 kts | 34° |
| 2026-04-16 08:12 | 2.95184 | 101.66932 | 3164 ft | 267 kts | 32° |
| 2026-04-16 08:12 | 2.96792 | 101.67890 | 3715 ft | 269 kts | 32° |
| 2026-04-16 08:12 | 2.98426 | 101.68851 | 4291 ft | 270 kts | 31° |
| 2026-04-16 08:13 | 3.00046 | 101.69795 | 4881 ft | 271 kts | 31° |
| 2026-04-16 08:13 | 3.01677 | 101.70745 | 5463 ft | 272 kts | 31° |
| 2026-04-16 08:13 | 3.03342 | 101.71713 | 6079 ft | 274 kts | 31° |
| 2026-04-16 08:13 | 3.04995 | 101.72675 | 6623 ft | 277 kts | 31° |
| 2026-04-16 08:14 | 3.06652 | 101.73638 | 7158 ft | 279 kts | 31° |
| 2026-04-16 08:14 | 3.08354 | 101.74628 | 7683 ft | 282 kts | 31° |
| 2026-04-16 08:14 | 3.10049 | 101.75613 | 8248 ft | 284 kts | 31° |
| 2026-04-16 08:14 | 3.11764 | 101.76610 | 8807 ft | 286 kts | 31° |
| 2026-04-16 08:15 | 3.13495 | 101.77615 | 9322 ft | 288 kts | 31° |
| 2026-04-16 08:15 | 3.15259 | 101.78645 | 9830 ft | 290 kts | 33° |
| 2026-04-16 08:15 | 3.16878 | 101.79874 | 10278 ft | 294 kts | 45° |
| 2026-04-16 08:15 | 3.18262 | 101.81471 | 10530 ft | 305 kts | 55° |
| 2026-04-16 08:16 | 3.19492 | 101.83263 | 10766 ft | 317 kts | 57° |
| 2026-04-16 08:16 | 3.20765 | 101.85180 | 11002 ft | 329 kts | 57° |
| 2026-04-16 08:16 | 3.22069 | 101.87138 | 11221 ft | 341 kts | 57° |
| 2026-04-16 08:16 | 3.23423 | 101.89153 | 11424 ft | 352 kts | 56° |
| 2026-04-16 08:17 | 3.24825 | 101.91229 | 11631 ft | 363 kts | 56° |
| 2026-04-16 08:17 | 3.26277 | 101.93374 | 11896 ft | 371 kts | 56° |
| 2026-04-16 08:17 | 3.27814 | 101.95506 | 12310 ft | 374 kts | 54° |
| 2026-04-16 08:17 | 3.29403 | 101.97649 | 12741 ft | 376 kts | 54° |
| 2026-04-16 08:18 | 3.30974 | 101.99763 | 13134 ft | 379 kts | 54° |
| 2026-04-16 08:19 | 3.45622 | 102.11364 | 15648 ft | 398 kts | 28° |
| 2026-04-16 08:20 | 3.48094 | 102.12624 | 15994 ft | 399 kts | 27° |
| 2026-04-16 08:20 | 3.50600 | 102.13902 | 16332 ft | 402 kts | 27° |
| 2026-04-16 08:20 | 3.53101 | 102.15176 | 16646 ft | 404 kts | 27° |
| 2026-04-16 08:20 | 3.55631 | 102.16466 | 16967 ft | 406 kts | 28° |
| 2026-04-16 08:21 | 3.58164 | 102.17762 | 17288 ft | 409 kts | 27° |
| 2026-04-16 08:21 | 3.60707 | 102.19063 | 17585 ft | 411 kts | 27° |
| 2026-04-16 08:21 | 3.63267 | 102.20373 | 17869 ft | 413 kts | 27° |
| 2026-04-16 08:21 | 3.65854 | 102.21697 | 18159 ft | 416 kts | 27° |
| 2026-04-16 08:22 | 3.68447 | 102.23023 | 18456 ft | 418 kts | 28° |
| 2026-04-16 08:22 | 3.71047 | 102.24355 | 18747 ft | 420 kts | 28° |
| 2026-04-16 08:22 | 3.73652 | 102.25690 | 19033 ft | 422 kts | 27° |
| 2026-04-16 08:22 | 3.76260 | 102.27026 | 19329 ft | 423 kts | 27° |
| 2026-04-16 08:23 | 3.78882 | 102.28369 | 19617 ft | 425 kts | 27° |
| 2026-04-16 08:23 | 3.81560 | 102.29740 | 19888 ft | 427 kts | 27° |
| 2026-04-16 08:23 | 3.84201 | 102.31093 | 20162 ft | 429 kts | 27° |
| 2026-04-16 08:23 | 3.85704 | 102.31863 | 20318 ft | 430 kts | 27° |
| 2026-04-16 08:24 | 3.87055 | 102.32555 | 20459 ft | 430 kts | 27° |
| 2026-04-16 08:24 | 3.89732 | 102.33926 | 20720 ft | 432 kts | 27° |
| 2026-04-16 08:24 | 3.92439 | 102.35314 | 20980 ft | 434 kts | 28° |
| 2026-04-16 08:24 | 3.95123 | 102.36689 | 21228 ft | 436 kts | 27° |
| 2026-04-16 08:25 | 3.95730 | 102.37000 | 21284 ft | 437 kts | 27° |
| 2026-04-16 08:25 | 3.96337 | 102.37312 | 21342 ft | 437 kts | 27° |
| 2026-04-16 08:25 | 3.96616 | 102.37455 | 21369 ft | 437 kts | 27° |
| 2026-04-16 08:27 | 3.97802 | 102.38063 | 21480 ft | 438 kts | 27° |
| 2026-04-16 08:27 | 3.97880 | 102.38103 | 21487 ft | 438 kts | 27° |
| 2026-04-16 08:27 | 4.00283 | 102.39334 | 21703 ft | 440 kts | 27° |
| 2026-04-16 08:28 | 4.02411 | 102.40426 | 21895 ft | 441 kts | 27° |
| 2026-04-16 08:28 | 4.05075 | 102.41791 | 22134 ft | 443 kts | 27° |
| 2026-04-16 08:28 | 4.07821 | 102.43199 | 22368 ft | 445 kts | 27° |
| 2026-04-16 08:29 | 4.08023 | 102.43302 | 22386 ft | 445 kts | 27° |
| 2026-04-16 08:29 | 4.10784 | 102.44718 | 22630 ft | 447 kts | 27° |
| 2026-04-16 08:29 | 4.11291 | 102.44978 | 22677 ft | 447 kts | 27° |
| 2026-04-16 08:29 | 4.14098 | 102.46417 | 22919 ft | 449 kts | 27° |
| 2026-04-16 08:30 | 4.16894 | 102.47850 | 23183 ft | 450 kts | 27° |
| 2026-04-16 08:30 | 4.19674 | 102.49276 | 23421 ft | 451 kts | 27° |
| 2026-04-16 08:30 | 4.22476 | 102.50713 | 23663 ft | 452 kts | 27° |
| 2026-04-16 08:30 | 4.25278 | 102.52151 | 23893 ft | 453 kts | 27° |
| 2026-04-16 08:31 | 4.28073 | 102.53585 | 24126 ft | 455 kts | 27° |
| 2026-04-16 08:31 | 4.30918 | 102.55045 | 24340 ft | 456 kts | 27° |
| 2026-04-16 08:31 | 4.33765 | 102.56506 | 24570 ft | 457 kts | 27° |
| 2026-04-16 08:31 | 4.36571 | 102.57945 | 24794 ft | 458 kts | 27° |
| 2026-04-16 08:32 | 4.39431 | 102.59412 | 25019 ft | 459 kts | 27° |
| 2026-04-16 08:32 | 4.42290 | 102.60879 | 25230 ft | 460 kts | 27° |
| 2026-04-16 08:32 | 4.45158 | 102.62353 | 25435 ft | 461 kts | 27° |
| 2026-04-16 08:32 | 4.48015 | 102.63819 | 25633 ft | 462 kts | 27° |
| 2026-04-16 08:33 | 4.50898 | 102.65300 | 25812 ft | 464 kts | 27° |
| 2026-04-16 08:33 | 4.53784 | 102.66784 | 25985 ft | 466 kts | 27° |
| 2026-04-16 08:33 | 4.56650 | 102.68256 | 26127 ft | 468 kts | 27° |
| 2026-04-16 08:33 | 4.59572 | 102.69756 | 26286 ft | 470 kts | 27° |
| 2026-04-16 08:34 | 4.62507 | 102.71240 | 26470 ft | 470 kts | 26° |
| 2026-04-16 08:34 | 4.65430 | 102.72684 | 26640 ft | 472 kts | 26° |
| 2026-04-16 08:34 | 4.68411 | 102.74151 | 26806 ft | 473 kts | 26° |
| 2026-04-16 08:34 | 4.71372 | 102.75609 | 26974 ft | 473 kts | 26° |
| 2026-04-16 08:35 | 4.74343 | 102.77075 | 27153 ft | 474 kts | 26° |
| 2026-04-16 08:35 | 4.77291 | 102.78535 | 27344 ft | 473 kts | 26° |
| 2026-04-16 08:35 | 4.80232 | 102.79993 | 27513 ft | 473 kts | 26° |
| 2026-04-16 08:35 | 4.83208 | 102.81467 | 27665 ft | 473 kts | 26° |
| 2026-04-16 08:36 | 4.86149 | 102.82923 | 27783 ft | 474 kts | 26° |
| 2026-04-16 08:36 | 4.89094 | 102.84392 | 27890 ft | 475 kts | 27° |
| 2026-04-16 08:36 | 4.92092 | 102.85903 | 27982 ft | 476 kts | 27° |
| 2026-04-16 08:36 | 4.95041 | 102.87395 | 28066 ft | 477 kts | 27° |
| 2026-04-16 08:37 | 5.00986 | 102.90402 | 28210 ft | 479 kts | 27° |
| 2026-04-16 08:37 | 5.06991 | 102.93440 | 28348 ft | 482 kts | 27° |
| 2026-04-16 08:38 | 5.09970 | 102.94947 | 28468 ft | 482 kts | 27° |
| 2026-04-16 08:38 | 5.12971 | 102.96465 | 28611 ft | 481 kts | 27° |
| 2026-04-16 08:38 | 5.15985 | 102.97990 | 28742 ft | 480 kts | 27° |
| 2026-04-16 08:38 | 5.18956 | 102.99493 | 28871 ft | 480 kts | 27° |
| 2026-04-16 08:39 | 5.21936 | 103.01002 | 28992 ft | 479 kts | 27° |
| 2026-04-16 08:39 | 5.24943 | 103.02524 | 29123 ft | 479 kts | 27° |
| 2026-04-16 08:39 | 5.27894 | 103.04018 | 29258 ft | 478 kts | 27° |
| 2026-04-16 08:39 | 5.30856 | 103.05518 | 29387 ft | 477 kts | 27° |
| 2026-04-16 08:40 | 5.36869 | 103.08373 | 29521 ft | 479 kts | 22° |
| 2026-04-16 08:40 | 5.43159 | 103.10729 | 29695 ft | 479 kts | 20° |
| 2026-04-16 08:41 | 5.49460 | 103.12990 | 29872 ft | 480 kts | 20° |
| 2026-04-16 08:41 | 5.52597 | 103.14116 | 29980 ft | 479 kts | 20° |
| 2026-04-16 08:41 | 5.55743 | 103.15249 | 30087 ft | 479 kts | 20° |
| 2026-04-16 08:42 | 5.58912 | 103.16391 | 30202 ft | 478 kts | 20° |
| 2026-04-16 08:42 | 5.62031 | 103.17516 | 30323 ft | 478 kts | 20° |
| 2026-04-16 08:42 | 5.65175 | 103.18652 | 30432 ft | 477 kts | 20° |
| 2026-04-16 08:42 | 5.68291 | 103.19777 | 30536 ft | 477 kts | 20° |
| 2026-04-16 08:43 | 5.74533 | 103.22026 | 30678 ft | 477 kts | 19° |
| 2026-04-16 08:43 | 5.80900 | 103.24030 | 30828 ft | 478 kts | 17° |
| 2026-04-16 08:44 | 5.87290 | 103.25970 | 31003 ft | 477 kts | 17° |
| 2026-04-16 08:44 | 5.93656 | 103.27907 | 31174 ft | 477 kts | 17° |
| 2026-04-16 08:45 | 5.99998 | 103.29839 | 31365 ft | 476 kts | 17° |
| 2026-04-16 08:45 | 6.06372 | 103.31785 | 31545 ft | 476 kts | 17° |
| 2026-04-16 08:46 | 6.12708 | 103.33720 | 31718 ft | 475 kts | 17° |
| 2026-04-16 08:46 | 6.19060 | 103.35660 | 31899 ft | 474 kts | 17° |
| 2026-04-16 08:47 | 6.25379 | 103.37592 | 32045 ft | 474 kts | 17° |
| 2026-04-16 08:47 | 6.31721 | 103.39530 | 32165 ft | 475 kts | 17° |
| 2026-04-16 08:48 | 6.38035 | 103.41459 | 32316 ft | 475 kts | 17° |
| 2026-04-16 08:48 | 6.44371 | 103.43396 | 32503 ft | 473 kts | 17° |
| 2026-04-16 08:49 | 6.50696 | 103.45332 | 32670 ft | 473 kts | 17° |
| 2026-04-16 08:49 | 6.56988 | 103.47256 | 32860 ft | 472 kts | 16° |
| 2026-04-16 08:50 | 6.60162 | 103.48228 | 32962 ft | 471 kts | 16° |
| 2026-04-16 08:50 | 6.63289 | 103.49185 | 33062 ft | 471 kts | 17° |
| 2026-04-16 08:50 | 6.69553 | 103.51103 | 33234 ft | 470 kts | 16° |
| 2026-04-16 08:51 | 6.75847 | 103.53030 | 33380 ft | 470 kts | 16° |
| 2026-04-16 08:51 | 6.82140 | 103.54959 | 33548 ft | 470 kts | 16° |
| 2026-04-16 08:52 | 6.88242 | 103.57251 | 33684 ft | 471 kts | 27° |
| 2026-04-16 08:52 | 6.93689 | 103.60928 | 33864 ft | 470 kts | 41° |
| 2026-04-16 08:53 | 6.98048 | 103.65766 | 34027 ft | 469 kts | 55° |
| 2026-04-16 08:53 | 7.01481 | 103.71330 | 34163 ft | 468 kts | 59° |
| 2026-04-16 08:54 | 7.04806 | 103.76957 | 34280 ft | 468 kts | 59° |
| 2026-04-16 08:54 | 7.08158 | 103.82579 | 34377 ft | 468 kts | 59° |
| 2026-04-16 08:55 | 7.11525 | 103.88198 | 34476 ft | 468 kts | 59° |
| 2026-04-16 08:55 | 7.12889 | 103.90475 | 34521 ft | 467 kts | 59° |
| 2026-04-16 08:56 | 7.16240 | 103.96068 | 34613 ft | 467 kts | 59° |
| 2026-04-16 08:56 | 7.16567 | 103.96614 | 34624 ft | 467 kts | 59° |
| 2026-04-16 08:57 | 7.19912 | 104.02197 | 34759 ft | 466 kts | 59° |
| 2026-04-16 08:57 | 7.20645 | 104.03421 | 34788 ft | 466 kts | 59° |
| 2026-04-16 08:59 | 7.21195 | 104.04330 | 34804 ft | 466 kts | 58° |
| 2026-04-16 08:59 | 7.21455 | 104.04747 | 34810 ft | 466 kts | 57° |
| 2026-04-16 09:00 | 7.25315 | 104.09966 | 34914 ft | 464 kts | 49° |
| 2026-04-16 09:00 | 7.29878 | 104.14543 | 35035 ft | 462 kts | 40° |
| 2026-04-16 09:01 | 7.37655 | 104.20312 | 35060 ft | 464 kts | 34° |
| 2026-04-16 09:02 | 7.42942 | 104.24030 | 35113 ft | 464 kts | 34° |
| 2026-04-16 09:02 | 7.48252 | 104.27776 | 35178 ft | 464 kts | 34° |
| 2026-04-16 09:03 | 7.53527 | 104.31503 | 35268 ft | 463 kts | 34° |
| 2026-04-16 09:03 | 7.58800 | 104.35236 | 35329 ft | 463 kts | 34° |
| 2026-04-16 09:04 | 7.64087 | 104.38979 | 35349 ft | 463 kts | 34° |
| 2026-04-16 09:04 | 7.69369 | 104.42720 | 35407 ft | 463 kts | 34° |
| 2026-04-16 09:05 | 7.74641 | 104.46453 | 35443 ft | 464 kts | 34° |
| 2026-04-16 09:05 | 7.79909 | 104.50187 | 35494 ft | 464 kts | 34° |
| 2026-04-16 09:06 | 7.85193 | 104.53934 | 35531 ft | 464 kts | 34° |
| 2026-04-16 09:06 | 7.90470 | 104.57674 | 35559 ft | 464 kts | 34° |
| 2026-04-16 09:07 | 7.95782 | 104.61443 | 35604 ft | 464 kts | 34° |
| 2026-04-16 09:07 | 8.01045 | 104.65176 | 35702 ft | 463 kts | 34° |
| 2026-04-16 09:08 | 8.06336 | 104.68932 | 35741 ft | 462 kts | 34° |
| 2026-04-16 09:08 | 8.11609 | 104.72677 | 35724 ft | 463 kts | 34° |
| 2026-04-16 09:09 | 8.16865 | 104.76409 | 35764 ft | 463 kts | 34° |
| 2026-04-16 09:09 | 8.22129 | 104.80150 | 35842 ft | 462 kts | 34° |
| 2026-04-16 09:10 | 8.27389 | 104.83889 | 35884 ft | 461 kts | 34° |
| 2026-04-16 09:10 | 8.32648 | 104.87629 | 35905 ft | 461 kts | 34° |
| 2026-04-16 09:11 | 8.37890 | 104.91358 | 35906 ft | 461 kts | 35° |
| 2026-04-16 09:11 | 8.43120 | 104.95082 | 35924 ft | 461 kts | 35° |
| 2026-04-16 09:12 | 8.48388 | 104.98833 | 35940 ft | 461 kts | 35° |
| 2026-04-16 09:12 | 8.53665 | 105.02563 | 35964 ft | 461 kts | 34° |
| 2026-04-16 09:13 | 8.58928 | 105.06251 | 35986 ft | 461 kts | 34° |
| 2026-04-16 09:13 | 8.64185 | 105.09940 | 35990 ft | 461 kts | 34° |
| 2026-04-16 09:14 | 8.69471 | 105.13657 | 35992 ft | 461 kts | 34° |
| 2026-04-16 09:14 | 8.74737 | 105.17361 | 36016 ft | 461 kts | 34° |
| 2026-04-16 09:15 | 8.80020 | 105.21080 | 36013 ft | 461 kts | 34° |
| 2026-04-16 09:15 | 8.85298 | 105.24795 | 36012 ft | 462 kts | 34° |
| 2026-04-16 09:16 | 8.90568 | 105.28508 | 36040 ft | 461 kts | 34° |
| 2026-04-16 09:16 | 8.95830 | 105.32215 | 36079 ft | 461 kts | 34° |
| 2026-04-16 09:17 | 9.01091 | 105.35925 | 36087 ft | 461 kts | 34° |
| 2026-04-16 09:17 | 9.06350 | 105.39632 | 36083 ft | 461 kts | 34° |
| 2026-04-16 09:18 | 9.11634 | 105.43361 | 36071 ft | 461 kts | 34° |
| 2026-04-16 09:18 | 9.16897 | 105.47074 | 36077 ft | 461 kts | 34° |
| 2026-04-16 09:19 | 9.22163 | 105.50791 | 36098 ft | 461 kts | 34° |
| 2026-04-16 09:19 | 9.27411 | 105.54497 | 36112 ft | 461 kts | 34° |
| 2026-04-16 09:20 | 9.32676 | 105.58216 | 36111 ft | 461 kts | 34° |
| 2026-04-16 09:20 | 9.37942 | 105.61938 | 36124 ft | 461 kts | 34° |
| 2026-04-16 09:21 | 9.43234 | 105.65680 | 36123 ft | 461 kts | 34° |
| 2026-04-16 09:21 | 9.48497 | 105.69403 | 36112 ft | 461 kts | 34° |
| 2026-04-16 09:22 | 9.53734 | 105.73109 | 36119 ft | 461 kts | 34° |
| 2026-04-16 09:22 | 9.58984 | 105.76826 | 36165 ft | 460 kts | 34° |
| 2026-04-16 09:23 | 9.64239 | 105.80546 | 36177 ft | 459 kts | 34° |
| 2026-04-16 09:23 | 9.69487 | 105.84266 | 36187 ft | 459 kts | 34° |
| 2026-04-16 09:24 | 9.74701 | 105.87964 | 36197 ft | 459 kts | 34° |
| 2026-04-16 09:24 | 9.79960 | 105.91691 | 36178 ft | 459 kts | 34° |
| 2026-04-16 09:25 | 9.85187 | 105.95389 | 36180 ft | 459 kts | 34° |
| 2026-04-16 09:25 | 9.90408 | 105.99088 | 36159 ft | 459 kts | 34° |
| 2026-04-16 09:26 | 9.95679 | 106.02823 | 36163 ft | 459 kts | 34° |
| 2026-04-16 09:26 | 10.00894 | 106.06523 | 36200 ft | 458 kts | 34° |
| 2026-04-16 09:27 | 10.06096 | 106.10216 | 36202 ft | 457 kts | 34° |
| 2026-04-16 09:27 | 10.11333 | 106.13934 | 36134 ft | 458 kts | 34° |
| 2026-04-16 09:28 | 10.16570 | 106.17656 | 36123 ft | 459 kts | 34° |
| 2026-04-16 09:28 | 10.21802 | 106.21378 | 36151 ft | 458 kts | 34° |
| 2026-04-16 09:29 | 10.27031 | 106.25095 | 36162 ft | 457 kts | 34° |
| 2026-04-16 09:29 | 10.32214 | 106.28850 | 36133 ft | 458 kts | 34° |
| 2026-04-16 09:30 | 10.37363 | 106.32603 | 36124 ft | 458 kts | 34° |
| 2026-04-16 09:30 | 10.42537 | 106.36373 | 36145 ft | 457 kts | 34° |
| 2026-04-16 09:31 | 10.47727 | 106.40153 | 36155 ft | 457 kts | 34° |
| 2026-04-16 09:31 | 10.52881 | 106.43909 | 36154 ft | 457 kts | 34° |
| 2026-04-16 09:32 | 10.58047 | 106.47676 | 36172 ft | 456 kts | 34° |
| 2026-04-16 09:32 | 10.63208 | 106.51440 | 36152 ft | 456 kts | 34° |
| 2026-04-16 09:33 | 10.68384 | 106.55220 | 36155 ft | 456 kts | 34° |
| 2026-04-16 09:33 | 10.73556 | 106.58996 | 36195 ft | 455 kts | 34° |
| 2026-04-16 09:34 | 10.78251 | 106.63274 | 36188 ft | 457 kts | 48° |
| 2026-04-16 09:34 | 10.81840 | 106.68643 | 36132 ft | 460 kts | 62° |
| 2026-04-16 09:35 | 10.84057 | 106.74751 | 36086 ft | 463 kts | 75° |
| 2026-04-16 09:35 | 10.85475 | 106.81087 | 36117 ft | 462 kts | 76° |
| 2026-04-16 09:36 | 10.86871 | 106.87453 | 36096 ft | 462 kts | 76° |
| 2026-04-16 09:36 | 10.88296 | 106.93839 | 36090 ft | 462 kts | 76° |
| 2026-04-16 09:37 | 10.89720 | 107.00177 | 36097 ft | 462 kts | 75° |
| 2026-04-16 09:37 | 10.91160 | 107.06559 | 36089 ft | 462 kts | 75° |
| 2026-04-16 09:38 | 10.92948 | 107.12791 | 36022 ft | 460 kts | 64° |
| 2026-04-16 09:38 | 10.96303 | 107.18265 | 35991 ft | 456 kts | 47° |
| 2026-04-16 09:39 | 11.01009 | 107.22532 | 35958 ft | 453 kts | 32° |
| 2026-04-16 09:39 | 11.06513 | 107.25646 | 35926 ft | 452 kts | 26° |
| 2026-04-16 09:40 | 11.12097 | 107.28619 | 35936 ft | 452 kts | 26° |
| 2026-04-16 09:40 | 11.17688 | 107.31622 | 35961 ft | 452 kts | 27° |
| 2026-04-16 09:41 | 11.23224 | 107.34600 | 35994 ft | 451 kts | 27° |
| 2026-04-16 09:41 | 11.28799 | 107.37598 | 36040 ft | 451 kts | 27° |
| 2026-04-16 09:42 | 11.34351 | 107.40588 | 36032 ft | 451 kts | 27° |
| 2026-04-16 09:42 | 11.39889 | 107.43574 | 36054 ft | 451 kts | 27° |
| 2026-04-16 09:43 | 11.45432 | 107.46562 | 36028 ft | 451 kts | 27° |
| 2026-04-16 09:43 | 11.51020 | 107.49576 | 36016 ft | 452 kts | 27° |
| 2026-04-16 09:44 | 11.56568 | 107.52572 | 36043 ft | 451 kts | 27° |
| 2026-04-16 09:44 | 11.62114 | 107.55567 | 36080 ft | 451 kts | 27° |
| 2026-04-16 09:45 | 11.67665 | 107.58566 | 36088 ft | 451 kts | 26° |
| 2026-04-16 09:45 | 11.73243 | 107.61581 | 36046 ft | 452 kts | 26° |
| 2026-04-16 09:46 | 11.78789 | 107.64580 | 36012 ft | 453 kts | 26° |
| 2026-04-16 09:46 | 11.84376 | 107.67602 | 35995 ft | 454 kts | 26° |
| 2026-04-16 09:47 | 11.89995 | 107.70642 | 35970 ft | 455 kts | 26° |
| 2026-04-16 09:47 | 11.95566 | 107.73659 | 35912 ft | 456 kts | 26° |
| 2026-04-16 09:48 | 12.01228 | 107.76727 | 35901 ft | 457 kts | 26° |
| 2026-04-16 09:48 | 12.06832 | 107.79764 | 35862 ft | 458 kts | 26° |
| 2026-04-16 09:49 | 12.12518 | 107.82846 | 35837 ft | 460 kts | 26° |
| 2026-04-16 09:49 | 12.18148 | 107.85902 | 35842 ft | 460 kts | 26° |
| 2026-04-16 09:50 | 12.23832 | 107.88987 | 35850 ft | 461 kts | 26° |
| 2026-04-16 09:50 | 12.29508 | 107.92069 | 35848 ft | 462 kts | 26° |
| 2026-04-16 09:51 | 12.35202 | 107.95164 | 35843 ft | 463 kts | 26° |
| 2026-04-16 09:51 | 12.40909 | 107.98266 | 35848 ft | 464 kts | 26° |
| 2026-04-16 09:52 | 12.46614 | 108.01369 | 35906 ft | 463 kts | 26° |
| 2026-04-16 09:52 | 12.52295 | 108.04463 | 35980 ft | 462 kts | 26° |
| 2026-04-16 09:53 | 12.57973 | 108.07557 | 36032 ft | 462 kts | 26° |
| 2026-04-16 09:53 | 12.63641 | 108.10645 | 36027 ft | 463 kts | 26° |
| 2026-04-16 09:54 | 12.69172 | 108.14056 | 36029 ft | 464 kts | 32° |
| 2026-04-16 09:54 | 12.74517 | 108.17829 | 36058 ft | 464 kts | 33° |
| 2026-04-16 09:55 | 12.79807 | 108.21592 | 36084 ft | 464 kts | 33° |
| 2026-04-16 09:55 | 12.85133 | 108.25377 | 36098 ft | 465 kts | 33° |
| 2026-04-16 09:56 | 12.90450 | 108.29153 | 36134 ft | 464 kts | 33° |
| 2026-04-16 09:56 | 12.95746 | 108.32916 | 36192 ft | 464 kts | 33° |
| 2026-04-16 09:57 | 13.01042 | 108.36681 | 36226 ft | 463 kts | 33° |
| 2026-04-16 09:57 | 13.06359 | 108.40462 | 36236 ft | 463 kts | 33° |
| 2026-04-16 09:58 | 13.11683 | 108.44251 | 36232 ft | 464 kts | 33° |
| 2026-04-16 09:58 | 13.16986 | 108.48028 | 36228 ft | 464 kts | 33° |
| 2026-04-16 09:59 | 13.22288 | 108.51807 | 36231 ft | 464 kts | 33° |
| 2026-04-16 09:59 | 13.27604 | 108.55598 | 36248 ft | 464 kts | 33° |
| 2026-04-16 10:00 | 13.32886 | 108.59364 | 36282 ft | 464 kts | 33° |
| 2026-04-16 10:00 | 13.38182 | 108.63129 | 36313 ft | 463 kts | 33° |
| 2026-04-16 10:01 | 13.46134 | 108.68792 | 36331 ft | 463 kts | 33° |
| 2026-04-16 10:01 | 13.51469 | 108.72595 | 36330 ft | 464 kts | 33° |
| 2026-04-16 10:02 | 13.56770 | 108.76380 | 36320 ft | 464 kts | 33° |
| 2026-04-16 10:02 | 13.62055 | 108.80154 | 36307 ft | 465 kts | 33° |
| 2026-04-16 10:03 | 13.67368 | 108.83951 | 36308 ft | 465 kts | 33° |
| 2026-04-16 10:03 | 13.72688 | 108.87754 | 36322 ft | 465 kts | 33° |
| 2026-04-16 10:04 | 13.77993 | 108.91550 | 36315 ft | 465 kts | 33° |
| 2026-04-16 10:04 | 13.83293 | 108.95345 | 36312 ft | 465 kts | 33° |
| 2026-04-16 10:05 | 13.88661 | 108.99157 | 36307 ft | 465 kts | 31° |
| 2026-04-16 10:05 | 13.94338 | 109.02303 | 36305 ft | 463 kts | 22° |
| 2026-04-16 10:06 | 14.00420 | 109.04472 | 36276 ft | 462 kts | 13° |
| 2026-04-16 10:06 | 14.06720 | 109.05634 | 36263 ft | 460 kts | 5° |
| 2026-04-16 10:07 | 14.13125 | 109.06405 | 36267 ft | 460 kts | 5° |
| 2026-04-16 10:07 | 14.19471 | 109.07159 | 36268 ft | 461 kts | 5° |
| 2026-04-16 10:08 | 14.25857 | 109.07929 | 36273 ft | 461 kts | 5° |
| 2026-04-16 10:08 | 14.32226 | 109.08701 | 36282 ft | 461 kts | 5° |
| 2026-04-16 10:09 | 14.38641 | 109.09480 | 36281 ft | 461 kts | 5° |
| 2026-04-16 10:09 | 14.45014 | 109.10255 | 36269 ft | 462 kts | 5° |
| 2026-04-16 10:10 | 14.51446 | 109.11038 | 36275 ft | 462 kts | 5° |
| 2026-04-16 10:10 | 14.57812 | 109.11814 | 36295 ft | 462 kts | 5° |
| 2026-04-16 10:11 | 14.64245 | 109.12598 | 36300 ft | 462 kts | 5° |
| 2026-04-16 10:11 | 14.70623 | 109.13377 | 36302 ft | 463 kts | 5° |
| 2026-04-16 10:12 | 14.77061 | 109.14162 | 36280 ft | 464 kts | 5° |
| 2026-04-16 10:12 | 14.83467 | 109.14944 | 36288 ft | 464 kts | 5° |
| 2026-04-16 10:13 | 14.89912 | 109.15731 | 36274 ft | 465 kts | 5° |
| 2026-04-16 10:13 | 14.96317 | 109.16515 | 36280 ft | 465 kts | 5° |
| 2026-04-16 10:14 | 15.02787 | 109.17305 | 36301 ft | 465 kts | 5° |
| 2026-04-16 10:14 | 15.09184 | 109.18089 | 36321 ft | 464 kts | 5° |
| 2026-04-16 10:15 | 15.15641 | 109.18879 | 36329 ft | 464 kts | 5° |
| 2026-04-16 10:15 | 15.22054 | 109.19666 | 36341 ft | 464 kts | 5° |
| 2026-04-16 10:16 | 15.28502 | 109.20458 | 36314 ft | 465 kts | 5° |
| 2026-04-16 10:16 | 15.34959 | 109.21250 | 36281 ft | 466 kts | 5° |
| 2026-04-16 10:17 | 15.41400 | 109.22040 | 36311 ft | 465 kts | 5° |
| 2026-04-16 10:17 | 15.47853 | 109.22832 | 36339 ft | 465 kts | 5° |
| 2026-04-16 10:18 | 15.54282 | 109.23623 | 36329 ft | 466 kts | 5° |
| 2026-04-16 10:18 | 15.60747 | 109.24418 | 36316 ft | 466 kts | 5° |
| 2026-04-16 10:19 | 15.67166 | 109.25204 | 36323 ft | 466 kts | 5° |
| 2026-04-16 10:19 | 15.73628 | 109.25995 | 36330 ft | 466 kts | 5° |
| 2026-04-16 10:20 | 15.80080 | 109.26784 | 36315 ft | 467 kts | 5° |
| 2026-04-16 10:20 | 15.86565 | 109.27580 | 36315 ft | 467 kts | 4° |
| 2026-04-16 10:21 | 15.93040 | 109.28373 | 36337 ft | 467 kts | 4° |
| 2026-04-16 10:21 | 15.99494 | 109.29164 | 36374 ft | 467 kts | 5° |
| 2026-04-16 10:22 | 16.05974 | 109.29960 | 36398 ft | 467 kts | 4° |
| 2026-04-16 10:22 | 16.12418 | 109.30752 | 36418 ft | 466 kts | 4° |
| 2026-04-16 10:23 | 16.18864 | 109.31544 | 36410 ft | 467 kts | 5° |
| 2026-04-16 10:23 | 16.25361 | 109.32343 | 36421 ft | 467 kts | 4° |
| 2026-04-16 10:24 | 16.31802 | 109.33136 | 36568 ft | 464 kts | 4° |
| 2026-04-16 10:24 | 16.34987 | 109.33530 | 36711 ft | 461 kts | 4° |
| 2026-04-16 10:24 | 16.38223 | 109.33928 | 36818 ft | 459 kts | 4° |
| 2026-04-16 10:25 | 16.44577 | 109.34711 | 36821 ft | 460 kts | 4° |
| 2026-04-16 10:25 | 16.50953 | 109.35497 | 36823 ft | 460 kts | 4° |
| 2026-04-16 10:26 | 16.57380 | 109.36290 | 36820 ft | 461 kts | 4° |
| 2026-04-16 10:26 | 16.63751 | 109.37077 | 36821 ft | 461 kts | 4° |
| 2026-04-16 10:27 | 16.70144 | 109.37868 | 36823 ft | 462 kts | 4° |
| 2026-04-16 10:27 | 16.76538 | 109.38969 | 36820 ft | 465 kts | 14° |
| 2026-04-16 10:28 | 16.82442 | 109.41712 | 36821 ft | 469 kts | 31° |
| 2026-04-16 10:28 | 16.87467 | 109.46125 | 36819 ft | 473 kts | 47° |
| 2026-04-16 10:29 | 16.91362 | 109.51703 | 36815 ft | 474 kts | 55° |
| 2026-04-16 10:29 | 16.95030 | 109.57471 | 36812 ft | 475 kts | 55° |
| 2026-04-16 10:30 | 16.98709 | 109.63219 | 36811 ft | 476 kts | 55° |
| 2026-04-16 10:30 | 17.02404 | 109.68960 | 36808 ft | 476 kts | 55° |
| 2026-04-16 10:31 | 17.06102 | 109.74699 | 36809 ft | 476 kts | 55° |
| 2026-04-16 10:31 | 17.09828 | 109.80483 | 36813 ft | 476 kts | 55° |
| 2026-04-16 10:32 | 17.13507 | 109.86197 | 36823 ft | 476 kts | 55° |
| 2026-04-16 10:32 | 17.17217 | 109.91966 | 36831 ft | 476 kts | 55° |
| 2026-04-16 10:33 | 17.20912 | 109.97715 | 36830 ft | 476 kts | 55° |
| 2026-04-16 10:33 | 17.24582 | 110.03431 | 36835 ft | 476 kts | 55° |
| 2026-04-16 10:34 | 17.28280 | 110.09197 | 36832 ft | 477 kts | 55° |
| 2026-04-16 10:34 | 17.31976 | 110.14964 | 36838 ft | 477 kts | 55° |
| 2026-04-16 10:35 | 17.35651 | 110.20702 | 36838 ft | 477 kts | 55° |
| 2026-04-16 10:35 | 17.39355 | 110.26494 | 36832 ft | 477 kts | 55° |
| 2026-04-16 10:36 | 17.43050 | 110.32252 | 36835 ft | 478 kts | 54° |
| 2026-04-16 10:36 | 17.46772 | 110.37971 | 36835 ft | 478 kts | 54° |
| 2026-04-16 10:37 | 17.50541 | 110.43765 | 36831 ft | 479 kts | 54° |
| 2026-04-16 10:37 | 17.54295 | 110.49549 | 36826 ft | 479 kts | 54° |
| 2026-04-16 10:38 | 17.58029 | 110.55313 | 36828 ft | 479 kts | 54° |
| 2026-04-16 10:38 | 17.61778 | 110.61104 | 36831 ft | 480 kts | 54° |
| 2026-04-16 10:39 | 17.65536 | 110.66914 | 36829 ft | 480 kts | 55° |
| 2026-04-16 10:39 | 17.69261 | 110.72679 | 36829 ft | 480 kts | 55° |
| 2026-04-16 10:40 | 17.73012 | 110.78488 | 36827 ft | 480 kts | 55° |
| 2026-04-16 10:40 | 17.76742 | 110.84272 | 36832 ft | 480 kts | 55° |
| 2026-04-16 10:41 | 17.80474 | 110.90062 | 36836 ft | 480 kts | 55° |
| 2026-04-16 10:41 | 17.84224 | 110.95886 | 36843 ft | 480 kts | 55° |
| 2026-04-16 10:42 | 17.87958 | 111.01691 | 36844 ft | 480 kts | 55° |
| 2026-04-16 10:42 | 17.91689 | 111.07495 | 36849 ft | 481 kts | 55° |
| 2026-04-16 10:43 | 17.95423 | 111.13310 | 36851 ft | 481 kts | 55° |
| 2026-04-16 10:43 | 17.99156 | 111.19129 | 36850 ft | 481 kts | 55° |
| 2026-04-16 10:44 | 18.02904 | 111.24974 | 36847 ft | 481 kts | 55° |
| 2026-04-16 10:44 | 18.06619 | 111.30772 | 36850 ft | 482 kts | 55° |
| 2026-04-16 10:45 | 18.10353 | 111.36610 | 36849 ft | 482 kts | 55° |
| 2026-04-16 10:45 | 18.14099 | 111.42470 | 36849 ft | 482 kts | 55° |
| 2026-04-16 10:46 | 18.17845 | 111.48335 | 36848 ft | 482 kts | 55° |
| 2026-04-16 10:46 | 18.21578 | 111.54185 | 36849 ft | 483 kts | 55° |
| 2026-04-16 10:47 | 18.25320 | 111.60053 | 36850 ft | 483 kts | 55° |
| 2026-04-16 10:47 | 18.29047 | 111.65904 | 36850 ft | 483 kts | 55° |
| 2026-04-16 10:48 | 18.32790 | 111.71785 | 36851 ft | 483 kts | 55° |
| 2026-04-16 10:48 | 18.36519 | 111.77651 | 36850 ft | 483 kts | 55° |
| 2026-04-16 10:49 | 18.40268 | 111.83552 | 36851 ft | 483 kts | 55° |
| 2026-04-16 10:49 | 18.44000 | 111.89432 | 36850 ft | 483 kts | 55° |
| 2026-04-16 10:50 | 18.47767 | 111.95377 | 36850 ft | 483 kts | 55° |
| 2026-04-16 10:50 | 18.51481 | 112.01240 | 36855 ft | 483 kts | 55° |
| 2026-04-16 10:51 | 18.55222 | 112.07153 | 36857 ft | 483 kts | 55° |
| 2026-04-16 10:51 | 18.58941 | 112.13038 | 36860 ft | 483 kts | 55° |
| 2026-04-16 10:52 | 18.62777 | 112.18848 | 36861 ft | 483 kts | 51° |
| 2026-04-16 10:52 | 18.66356 | 112.24796 | 36854 ft | 484 kts | 69° |
| 2026-04-16 10:53 | 18.67276 | 112.28174 | 36859 ft | 483 kts | 81° |
| 2026-04-16 10:53 | 18.67676 | 112.31699 | 36868 ft | 483 kts | 86° |
| 2026-04-16 10:53 | 18.68354 | 112.38693 | 36849 ft | 483 kts | 75° |
| 2026-04-16 10:54 | 18.69456 | 112.42032 | 36855 ft | 482 kts | 64° |
| 2026-04-16 10:54 | 18.71030 | 112.45158 | 36862 ft | 481 kts | 59° |
| 2026-04-16 10:54 | 18.74479 | 112.51197 | 36856 ft | 482 kts | 57° |
| 2026-04-16 10:55 | 18.78006 | 112.57244 | 36854 ft | 483 kts | 57° |
| 2026-04-16 10:55 | 18.81540 | 112.63296 | 36853 ft | 483 kts | 57° |
| 2026-04-16 10:56 | 18.85049 | 112.69295 | 36852 ft | 483 kts | 57° |
| 2026-04-16 10:56 | 18.88587 | 112.75333 | 36851 ft | 484 kts | 57° |
| 2026-04-16 10:57 | 18.92137 | 112.81384 | 36851 ft | 484 kts | 57° |
| 2026-04-16 10:57 | 18.95675 | 112.87415 | 36851 ft | 484 kts | 57° |
| 2026-04-16 10:58 | 18.99207 | 112.93428 | 36852 ft | 484 kts | 57° |
| 2026-04-16 10:58 | 19.02762 | 112.99484 | 36851 ft | 485 kts | 57° |
| 2026-04-16 10:59 | 19.06317 | 113.05556 | 36850 ft | 485 kts | 57° |
| 2026-04-16 10:59 | 19.09828 | 113.11575 | 36853 ft | 485 kts | 57° |
| 2026-04-16 11:00 | 19.13377 | 113.17647 | 36852 ft | 485 kts | 57° |
| 2026-04-16 11:00 | 19.16935 | 113.23714 | 36851 ft | 485 kts | 57° |
| 2026-04-16 11:01 | 19.20483 | 113.29763 | 36856 ft | 486 kts | 57° |
| 2026-04-16 11:01 | 19.24042 | 113.35833 | 36858 ft | 486 kts | 57° |
| 2026-04-16 11:02 | 19.27605 | 113.41908 | 36865 ft | 486 kts | 57° |
| 2026-04-16 11:02 | 19.31164 | 113.47979 | 36867 ft | 486 kts | 57° |
| 2026-04-16 11:03 | 19.34725 | 113.54060 | 36870 ft | 487 kts | 57° |
| 2026-04-16 11:04 | 19.40060 | 113.63178 | 36872 ft | 487 kts | 57° |
| 2026-04-16 11:04 | 19.43636 | 113.69269 | 36872 ft | 487 kts | 57° |
| 2026-04-16 11:05 | 19.47237 | 113.75394 | 36872 ft | 488 kts | 57° |
| 2026-04-16 11:05 | 19.50807 | 113.81474 | 36874 ft | 488 kts | 57° |
| 2026-04-16 11:06 | 19.54397 | 113.87592 | 36872 ft | 488 kts | 57° |
| 2026-04-16 11:06 | 19.57961 | 113.93677 | 36873 ft | 488 kts | 57° |
| 2026-04-16 11:07 | 19.61539 | 113.99789 | 36873 ft | 488 kts | 57° |
| 2026-04-16 11:07 | 19.65122 | 114.05899 | 36872 ft | 488 kts | 57° |
| 2026-04-16 11:08 | 19.68699 | 114.11988 | 36872 ft | 489 kts | 57° |
| 2026-04-16 11:08 | 19.72292 | 114.18099 | 36872 ft | 489 kts | 57° |
| 2026-04-16 11:09 | 19.75886 | 114.24214 | 36872 ft | 489 kts | 57° |
| 2026-04-16 11:09 | 19.79808 | 114.30064 | 36864 ft | 487 kts | 43° |
| 2026-04-16 11:10 | 19.85211 | 114.34320 | 36872 ft | 480 kts | 24° |
| 2026-04-16 11:10 | 19.91483 | 114.36550 | 36872 ft | 472 kts | 6° |
| 2026-04-16 11:11 | 19.97978 | 114.36715 | 36879 ft | 466 kts | 352° |
| 2026-04-16 11:11 | 20.04428 | 114.36121 | 36873 ft | 466 kts | 351° |
| 2026-04-16 11:12 | 20.10907 | 114.35513 | 36869 ft | 467 kts | 351° |
| 2026-04-16 11:12 | 20.17395 | 114.34920 | 36869 ft | 467 kts | 352° |
| 2026-04-16 11:13 | 20.23953 | 114.34329 | 36872 ft | 468 kts | 351° |
| 2026-04-16 11:13 | 20.30463 | 114.33744 | 36872 ft | 468 kts | 351° |
| 2026-04-16 11:14 | 20.36943 | 114.33161 | 36871 ft | 469 kts | 351° |
| 2026-04-16 11:14 | 20.43459 | 114.32576 | 36869 ft | 469 kts | 351° |
| 2026-04-16 11:15 | 20.49971 | 114.31990 | 36876 ft | 469 kts | 351° |
| 2026-04-16 11:15 | 20.56533 | 114.31399 | 36876 ft | 469 kts | 351° |
| 2026-04-16 11:16 | 20.63052 | 114.30811 | 36876 ft | 470 kts | 351° |
| 2026-04-16 11:16 | 20.69552 | 114.30226 | 36876 ft | 470 kts | 351° |
| 2026-04-16 11:17 | 20.76082 | 114.29636 | 36885 ft | 470 kts | 351° |
| 2026-04-16 11:17 | 20.82639 | 114.29044 | 36889 ft | 470 kts | 351° |
| 2026-04-16 11:18 | 20.89134 | 114.28456 | 36890 ft | 470 kts | 351° |
| 2026-04-16 11:18 | 20.95679 | 114.27864 | 36891 ft | 470 kts | 351° |
| 2026-04-16 11:19 | 21.02189 | 114.27274 | 36892 ft | 470 kts | 351° |
| 2026-04-16 11:19 | 21.08710 | 114.26683 | 36895 ft | 470 kts | 351° |
| 2026-04-16 11:20 | 21.15273 | 114.26088 | 36896 ft | 471 kts | 351° |
| 2026-04-16 11:20 | 21.21818 | 114.25493 | 36895 ft | 471 kts | 351° |
| 2026-04-16 11:21 | 21.28356 | 114.24899 | 36891 ft | 470 kts | 351° |
| 2026-04-16 11:21 | 21.34879 | 114.24305 | 36888 ft | 471 kts | 351° |
| 2026-04-16 11:22 | 21.41400 | 114.23711 | 36885 ft | 470 kts | 351° |
| 2026-04-16 11:22 | 21.47951 | 114.23113 | 36887 ft | 470 kts | 350° |
| 2026-04-16 11:23 | 21.54482 | 114.22517 | 36888 ft | 470 kts | 350° |
| 2026-04-16 11:23 | 21.60990 | 114.21923 | 36887 ft | 471 kts | 350° |
| 2026-04-16 11:24 | 21.67550 | 114.21324 | 36888 ft | 470 kts | 350° |
| 2026-04-16 11:24 | 21.74055 | 114.20729 | 36898 ft | 470 kts | 350° |
| 2026-04-16 11:25 | 21.80563 | 114.20133 | 37001 ft | 469 kts | 350° |
| 2026-04-16 11:25 | 21.87091 | 114.19534 | 37121 ft | 468 kts | 350° |
| 2026-04-16 11:26 | 21.93544 | 114.18942 | 37232 ft | 467 kts | 350° |
| 2026-04-16 11:26 | 22.00047 | 114.18346 | 37357 ft | 466 kts | 350° |
| 2026-04-16 11:27 | 22.06540 | 114.17748 | 37473 ft | 465 kts | 350° |
| 2026-04-16 11:27 | 22.12772 | 114.17175 | 37502 ft | 465 kts | 350° |
| 2026-04-16 11:28 | 22.21911 | 114.16331 | 37374 ft | 469 kts | 350° |
| 2026-04-16 11:28 | 22.25160 | 114.16032 | 37405 ft | 469 kts | 350° |
| 2026-04-16 11:29 | 22.31643 | 114.15434 | 37489 ft | 468 kts | 350° |
| 2026-04-16 11:29 | 22.38128 | 114.14834 | 37501 ft | 465 kts | 349° |
| 2026-04-16 11:29 | 22.41391 | 114.14532 | 37168 ft | 462 kts | 349° |
| 2026-04-16 11:30 | 22.44561 | 114.14236 | 36982 ft | 463 kts | 349° |
| 2026-04-16 11:30 | 22.50939 | 114.13207 | 36978 ft | 460 kts | 342° |
| 2026-04-16 11:31 | 22.57120 | 114.11423 | 36976 ft | 457 kts | 336° |
| 2026-04-16 11:31 | 22.62994 | 114.08933 | 36973 ft | 453 kts | 329° |
| 2026-04-16 11:32 | 22.68707 | 114.06004 | 36970 ft | 452 kts | 329° |
| 2026-04-16 11:32 | 22.74372 | 114.03072 | 36967 ft | 451 kts | 329° |
| 2026-04-16 11:33 | 22.80024 | 114.00150 | 36965 ft | 451 kts | 329° |
| 2026-04-16 11:33 | 22.85707 | 113.97218 | 36968 ft | 450 kts | 329° |
| 2026-04-16 11:34 | 22.91430 | 113.94263 | 36960 ft | 450 kts | 329° |
| 2026-04-16 11:34 | 22.96810 | 113.91464 | 36958 ft | 451 kts | 329° |
| 2026-04-16 11:35 | 23.02502 | 113.88497 | 36960 ft | 450 kts | 328° |
| 2026-04-16 11:35 | 23.08180 | 113.85575 | 36956 ft | 451 kts | 330° |
| 2026-04-16 11:36 | 23.14096 | 113.83076 | 36957 ft | 454 kts | 334° |
| 2026-04-16 11:36 | 23.20112 | 113.80718 | 36959 ft | 454 kts | 334° |
| 2026-04-16 11:37 | 23.26127 | 113.78359 | 36957 ft | 454 kts | 334° |
| 2026-04-16 11:37 | 23.32108 | 113.76006 | 36956 ft | 454 kts | 334° |
| 2026-04-16 11:38 | 23.38140 | 113.73629 | 36951 ft | 455 kts | 334° |
| 2026-04-16 11:38 | 23.44122 | 113.71269 | 36961 ft | 454 kts | 334° |
| 2026-04-16 11:39 | 23.50057 | 113.68925 | 36961 ft | 455 kts | 334° |
| 2026-04-16 11:39 | 23.56149 | 113.66516 | 36957 ft | 456 kts | 334° |
| 2026-04-16 11:40 | 23.62093 | 113.64165 | 36961 ft | 456 kts | 334° |
| 2026-04-16 11:40 | 23.68060 | 113.61800 | 36966 ft | 456 kts | 334° |
| 2026-04-16 11:41 | 23.74025 | 113.59435 | 36967 ft | 456 kts | 334° |
| 2026-04-16 11:41 | 23.80016 | 113.57056 | 36969 ft | 457 kts | 334° |
| 2026-04-16 11:42 | 23.85984 | 113.54684 | 36974 ft | 457 kts | 334° |
| 2026-04-16 11:42 | 23.91958 | 113.52307 | 36981 ft | 458 kts | 334° |
| 2026-04-16 11:43 | 23.97944 | 113.49923 | 37000 ft | 457 kts | 334° |
| 2026-04-16 11:43 | 24.03962 | 113.47521 | 37002 ft | 458 kts | 334° |
| 2026-04-16 11:44 | 24.09970 | 113.45130 | 36989 ft | 460 kts | 335° |
| 2026-04-16 11:44 | 24.16195 | 113.43189 | 36978 ft | 466 kts | 342° |
| 2026-04-16 11:45 | 24.22616 | 113.42078 | 36966 ft | 472 kts | 349° |
| 2026-04-16 11:45 | 24.29244 | 113.41822 | 36973 ft | 478 kts | 355° |
| 2026-04-16 11:46 | 24.35909 | 113.42048 | 36990 ft | 479 kts | 356° |
| 2026-04-16 11:46 | 24.42590 | 113.42247 | 37014 ft | 480 kts | 356° |
| 2026-04-16 11:47 | 24.49254 | 113.42433 | 37039 ft | 480 kts | 356° |
| 2026-04-16 11:47 | 24.55980 | 113.42622 | 37044 ft | 481 kts | 356° |
| 2026-04-16 11:48 | 24.62709 | 113.42815 | 37038 ft | 483 kts | 356° |
| 2026-04-16 11:48 | 24.69406 | 113.43005 | 37014 ft | 483 kts | 356° |
| 2026-04-16 11:49 | 24.76148 | 113.43197 | 37002 ft | 484 kts | 356° |
| 2026-04-16 11:49 | 24.82902 | 113.43386 | 37006 ft | 485 kts | 356° |
| 2026-04-16 11:50 | 24.89691 | 113.43581 | 37011 ft | 487 kts | 356° |
| 2026-04-16 11:50 | 24.96468 | 113.43774 | 37018 ft | 488 kts | 356° |
| 2026-04-16 11:51 | 25.03260 | 113.43968 | 37015 ft | 488 kts | 356° |
| 2026-04-16 11:51 | 25.10075 | 113.44164 | 37024 ft | 489 kts | 356° |
| 2026-04-16 11:52 | 25.16870 | 113.44360 | 37027 ft | 488 kts | 356° |
| 2026-04-16 11:52 | 25.23700 | 113.44557 | 37046 ft | 488 kts | 355° |
| 2026-04-16 11:53 | 25.30461 | 113.44749 | 37047 ft | 488 kts | 356° |
| 2026-04-16 11:53 | 25.37275 | 113.44944 | 37051 ft | 489 kts | 355° |
| 2026-04-16 11:54 | 25.44111 | 113.45139 | 37070 ft | 489 kts | 355° |
| 2026-04-16 11:54 | 25.50911 | 113.45335 | 37078 ft | 489 kts | 355° |
| 2026-04-16 11:55 | 25.57694 | 113.45530 | 37081 ft | 489 kts | 355° |
| 2026-04-16 11:55 | 25.64504 | 113.45726 | 37084 ft | 488 kts | 355° |
| 2026-04-16 11:56 | 25.71294 | 113.45921 | 37097 ft | 489 kts | 355° |
| 2026-04-16 11:56 | 25.78097 | 113.46116 | 37085 ft | 489 kts | 355° |
| 2026-04-16 11:57 | 25.84922 | 113.46313 | 37092 ft | 490 kts | 355° |
| 2026-04-16 11:57 | 25.91754 | 113.46519 | 37082 ft | 489 kts | 355° |
| 2026-04-16 11:58 | 25.98555 | 113.46736 | 37075 ft | 489 kts | 355° |
| 2026-04-16 11:58 | 26.05376 | 113.46950 | 37071 ft | 489 kts | 355° |
| 2026-04-16 11:59 | 26.12178 | 113.47163 | 37070 ft | 488 kts | 355° |
| 2026-04-16 11:59 | 26.18999 | 113.47375 | 37077 ft | 488 kts | 354° |
| 2026-04-16 12:00 | 26.25812 | 113.47588 | 37078 ft | 489 kts | 354° |
| 2026-04-16 12:00 | 26.32612 | 113.47799 | 37076 ft | 490 kts | 354° |
| 2026-04-16 12:01 | 26.39421 | 113.48013 | 37071 ft | 490 kts | 354° |
| 2026-04-16 12:01 | 26.46261 | 113.48225 | 37065 ft | 489 kts | 354° |
| 2026-04-16 12:02 | 26.56448 | 113.48546 | 37057 ft | 490 kts | 353° |
| 2026-04-16 12:02 | 26.63270 | 113.48759 | 37057 ft | 490 kts | 353° |
| 2026-04-16 12:03 | 26.70125 | 113.48976 | 37062 ft | 491 kts | 353° |
| 2026-04-16 12:03 | 26.76974 | 113.49192 | 37062 ft | 491 kts | 352° |
| 2026-04-16 12:04 | 26.83788 | 113.49406 | 37069 ft | 490 kts | 352° |
| 2026-04-16 12:04 | 26.90611 | 113.49616 | 37067 ft | 491 kts | 352° |
| 2026-04-16 12:05 | 26.97469 | 113.49835 | 37074 ft | 490 kts | 352° |
| 2026-04-16 12:05 | 27.04303 | 113.50054 | 37070 ft | 490 kts | 352° |
| 2026-04-16 12:06 | 27.11115 | 113.50265 | 37067 ft | 491 kts | 352° |
| 2026-04-16 12:06 | 27.17956 | 113.50481 | 37067 ft | 489 kts | 352° |
| 2026-04-16 12:07 | 27.24731 | 113.50694 | 37059 ft | 489 kts | 352° |
| 2026-04-16 12:07 | 27.31525 | 113.50873 | 37057 ft | 489 kts | 351° |
| 2026-04-16 12:08 | 27.38360 | 113.51035 | 37057 ft | 489 kts | 351° |
| 2026-04-16 12:08 | 27.45183 | 113.51196 | 37059 ft | 489 kts | 351° |
| 2026-04-16 12:09 | 27.51978 | 113.51363 | 37061 ft | 489 kts | 351° |
| 2026-04-16 12:09 | 27.58804 | 113.51529 | 37056 ft | 489 kts | 351° |
| 2026-04-16 12:10 | 27.65582 | 113.51743 | 37058 ft | 493 kts | 353° |
| 2026-04-16 12:10 | 27.72469 | 113.52303 | 37061 ft | 494 kts | 354° |
| 2026-04-16 12:11 | 27.79338 | 113.52905 | 37060 ft | 495 kts | 354° |
| 2026-04-16 12:11 | 27.86219 | 113.53503 | 37062 ft | 497 kts | 354° |
| 2026-04-16 12:12 | 27.93087 | 113.54092 | 37063 ft | 496 kts | 354° |
| 2026-04-16 12:12 | 27.99985 | 113.54684 | 37067 ft | 495 kts | 354° |
| 2026-04-16 12:13 | 28.06860 | 113.55273 | 37076 ft | 495 kts | 353° |
| 2026-04-16 12:13 | 28.13757 | 113.55836 | 37073 ft | 494 kts | 353° |
| 2026-04-16 12:14 | 28.20618 | 113.56305 | 37075 ft | 494 kts | 353° |
| 2026-04-16 12:14 | 28.27477 | 113.56770 | 37074 ft | 495 kts | 352° |
| 2026-04-16 12:15 | 28.34370 | 113.57246 | 37079 ft | 496 kts | 352° |
| 2026-04-16 12:15 | 28.41270 | 113.57724 | 37076 ft | 496 kts | 352° |
| 2026-04-16 12:16 | 28.48178 | 113.58205 | 37087 ft | 497 kts | 352° |
| 2026-04-16 12:16 | 28.55056 | 113.58675 | 37093 ft | 496 kts | 352° |
| 2026-04-16 12:17 | 28.61935 | 113.59130 | 37094 ft | 496 kts | 352° |
| 2026-04-16 12:17 | 28.68860 | 113.59589 | 37086 ft | 496 kts | 352° |
| 2026-04-16 12:18 | 28.75757 | 113.60053 | 37084 ft | 496 kts | 352° |
| 2026-04-16 12:18 | 28.82679 | 113.60577 | 37084 ft | 498 kts | 352° |
| 2026-04-16 12:19 | 28.89600 | 113.61123 | 37092 ft | 497 kts | 353° |
| 2026-04-16 12:19 | 28.96471 | 113.61655 | 37086 ft | 497 kts | 352° |
| 2026-04-16 12:20 | 29.03399 | 113.62192 | 37083 ft | 498 kts | 353° |
| 2026-04-16 12:20 | 29.10339 | 113.62728 | 37092 ft | 499 kts | 353° |
| 2026-04-16 12:21 | 29.17257 | 113.63264 | 37092 ft | 499 kts | 352° |
| 2026-04-16 12:21 | 29.24204 | 113.63802 | 37082 ft | 499 kts | 352° |
| 2026-04-16 12:22 | 29.31151 | 113.64355 | 37079 ft | 498 kts | 353° |
| 2026-04-16 12:22 | 29.38045 | 113.64912 | 37079 ft | 498 kts | 353° |
| 2026-04-16 12:23 | 29.44955 | 113.65471 | 37076 ft | 499 kts | 353° |
| 2026-04-16 12:23 | 29.51901 | 113.66030 | 37078 ft | 499 kts | 353° |
| 2026-04-16 12:24 | 29.58850 | 113.66592 | 37074 ft | 500 kts | 353° |
| 2026-04-16 12:24 | 29.65772 | 113.67156 | 37067 ft | 498 kts | 353° |
| 2026-04-16 12:25 | 29.72711 | 113.67715 | 37061 ft | 499 kts | 353° |
| 2026-04-16 12:25 | 29.79627 | 113.68276 | 37060 ft | 499 kts | 353° |
| 2026-04-16 12:26 | 29.86573 | 113.69168 | 37055 ft | 507 kts | 359° |
| 2026-04-16 12:26 | 29.93474 | 113.71040 | 37055 ft | 516 kts | 7° |
| 2026-04-16 12:27 | 30.00268 | 113.73961 | 37055 ft | 523 kts | 14° |
| 2026-04-16 12:27 | 30.06921 | 113.77403 | 37052 ft | 522 kts | 16° |
| 2026-04-16 12:28 | 30.13547 | 113.80849 | 37055 ft | 524 kts | 15° |
| 2026-04-16 12:28 | 30.20205 | 113.84283 | 37056 ft | 522 kts | 15° |
| 2026-04-16 12:29 | 30.26825 | 113.87681 | 37051 ft | 521 kts | 15° |
| 2026-04-16 12:29 | 30.33447 | 113.91091 | 37051 ft | 521 kts | 15° |
| 2026-04-16 12:30 | 30.40046 | 113.94491 | 37048 ft | 520 kts | 15° |
| 2026-04-16 12:30 | 30.46621 | 113.97887 | 37050 ft | 518 kts | 15° |
| 2026-04-16 12:31 | 30.53177 | 114.01275 | 37043 ft | 517 kts | 15° |
| 2026-04-16 12:31 | 30.59784 | 114.04703 | 37045 ft | 518 kts | 15° |
| 2026-04-16 12:32 | 30.66363 | 114.08141 | 37043 ft | 517 kts | 16° |
| 2026-04-16 12:32 | 30.72911 | 114.11572 | 37046 ft | 517 kts | 15° |
| 2026-04-16 12:33 | 30.79442 | 114.14997 | 37043 ft | 517 kts | 16° |
| 2026-04-16 12:33 | 30.86008 | 114.18443 | 37041 ft | 517 kts | 16° |
| 2026-04-16 12:34 | 30.92558 | 114.21886 | 37045 ft | 517 kts | 16° |
| 2026-04-16 12:34 | 30.99091 | 114.25327 | 37053 ft | 516 kts | 16° |
| 2026-04-16 12:35 | 31.05657 | 114.28790 | 37061 ft | 516 kts | 16° |
| 2026-04-16 12:35 | 31.12167 | 114.32225 | 37062 ft | 516 kts | 16° |
| 2026-04-16 12:36 | 31.18726 | 114.35697 | 37064 ft | 515 kts | 16° |
| 2026-04-16 12:36 | 31.25259 | 114.39120 | 37070 ft | 513 kts | 13° |
| 2026-04-16 12:37 | 31.31888 | 114.41834 | 37071 ft | 503 kts | 5° |
| 2026-04-16 12:37 | 31.38668 | 114.43529 | 37068 ft | 494 kts | 358° |
| 2026-04-16 12:38 | 31.45476 | 114.44320 | 37066 ft | 490 kts | 353° |
| 2026-04-16 12:38 | 31.52263 | 114.44902 | 37069 ft | 492 kts | 354° |
| 2026-04-16 12:39 | 31.59109 | 114.45525 | 37068 ft | 492 kts | 354° |
| 2026-04-16 12:39 | 31.65936 | 114.46168 | 37077 ft | 491 kts | 354° |
| 2026-04-16 12:40 | 31.72737 | 114.46812 | 37074 ft | 491 kts | 354° |
| 2026-04-16 12:40 | 31.79530 | 114.47452 | 37067 ft | 490 kts | 354° |
| 2026-04-16 12:41 | 31.86334 | 114.48093 | 37060 ft | 490 kts | 354° |
| 2026-04-16 12:41 | 31.93130 | 114.48734 | 37075 ft | 490 kts | 354° |
| 2026-04-16 12:42 | 31.99921 | 114.49376 | 37064 ft | 489 kts | 354° |
| 2026-04-16 12:42 | 32.06672 | 114.50012 | 37070 ft | 489 kts | 354° |
| 2026-04-16 12:43 | 32.13465 | 114.50658 | 37061 ft | 487 kts | 354° |
| 2026-04-16 12:43 | 32.20225 | 114.51296 | 37063 ft | 488 kts | 354° |
| 2026-04-16 12:44 | 32.27008 | 114.51939 | 37070 ft | 487 kts | 354° |
| 2026-04-16 12:44 | 32.33743 | 114.52580 | 37056 ft | 486 kts | 354° |
| 2026-04-16 12:45 | 32.40458 | 114.53226 | 37065 ft | 485 kts | 354° |
| 2026-04-16 12:45 | 32.47216 | 114.53879 | 37060 ft | 485 kts | 354° |
| 2026-04-16 12:46 | 32.53928 | 114.54525 | 37060 ft | 485 kts | 355° |
| 2026-04-16 12:46 | 32.60655 | 114.55173 | 37064 ft | 485 kts | 355° |
| 2026-04-16 12:47 | 32.67390 | 114.55827 | 37060 ft | 484 kts | 354° |
| 2026-04-16 12:47 | 32.74090 | 114.56473 | 37058 ft | 484 kts | 354° |
| 2026-04-16 12:48 | 32.80771 | 114.57121 | 36964 ft | 483 kts | 354° |
| 2026-04-16 12:48 | 32.87477 | 114.57769 | 37050 ft | 485 kts | 355° |
| 2026-04-16 12:49 | 32.94246 | 114.58426 | 37030 ft | 485 kts | 355° |
| 2026-04-16 12:49 | 33.00963 | 114.59081 | 37059 ft | 484 kts | 355° |
| 2026-04-16 12:50 | 33.07664 | 114.59735 | 37043 ft | 483 kts | 355° |
| 2026-04-16 12:50 | 33.14369 | 114.60389 | 37042 ft | 484 kts | 355° |
| 2026-04-16 12:51 | 33.21079 | 114.61047 | 37041 ft | 482 kts | 355° |
| 2026-04-16 12:51 | 33.27760 | 114.61699 | 37035 ft | 484 kts | 355° |
| 2026-04-16 12:52 | 33.34447 | 114.62354 | 37037 ft | 483 kts | 355° |
| 2026-04-16 12:52 | 33.41179 | 114.63017 | 37040 ft | 483 kts | 355° |
| 2026-04-16 12:53 | 33.47850 | 114.63672 | 37040 ft | 483 kts | 355° |
| 2026-04-16 12:53 | 33.54534 | 114.64329 | 37036 ft | 482 kts | 355° |
| 2026-04-16 12:54 | 33.61233 | 114.64989 | 37039 ft | 483 kts | 355° |
| 2026-04-16 12:54 | 33.67936 | 114.65647 | 37040 ft | 483 kts | 355° |
| 2026-04-16 12:55 | 33.74624 | 114.66276 | 37039 ft | 483 kts | 355° |
| 2026-04-16 12:55 | 33.81332 | 114.66901 | 37036 ft | 482 kts | 355° |
| 2026-04-16 12:56 | 33.88021 | 114.67524 | 37033 ft | 483 kts | 355° |
| 2026-04-16 12:56 | 33.94709 | 114.68150 | 37039 ft | 483 kts | 355° |
| 2026-04-16 12:57 | 34.01429 | 114.68780 | 37036 ft | 484 kts | 355° |
| 2026-04-16 12:57 | 34.08154 | 114.69414 | 37034 ft | 482 kts | 355° |
| 2026-04-16 12:58 | 34.14813 | 114.70042 | 37030 ft | 482 kts | 355° |
| 2026-04-16 12:58 | 34.21521 | 114.70670 | 37033 ft | 483 kts | 355° |
| 2026-04-16 12:59 | 34.28213 | 114.71304 | 37032 ft | 482 kts | 355° |
| 2026-04-16 13:00 | 34.38259 | 114.72272 | 37030 ft | 483 kts | 355° |
| 2026-04-16 13:00 | 34.44946 | 114.72926 | 37026 ft | 484 kts | 355° |
| 2026-04-16 13:01 | 34.51642 | 114.73580 | 37034 ft | 483 kts | 355° |
| 2026-04-16 13:01 | 34.58362 | 114.74236 | 37035 ft | 482 kts | 355° |
| 2026-04-16 13:02 | 34.65047 | 114.74886 | 37026 ft | 483 kts | 355° |
| 2026-04-16 13:02 | 34.71731 | 114.75538 | 37023 ft | 484 kts | 355° |
| 2026-04-16 13:03 | 34.78443 | 114.76187 | 37035 ft | 483 kts | 355° |
| 2026-04-16 13:03 | 34.85138 | 114.76833 | 37039 ft | 483 kts | 355° |
| 2026-04-16 13:04 | 34.91855 | 114.77481 | 37037 ft | 484 kts | 355° |
| 2026-04-16 13:04 | 34.98523 | 114.78125 | 37042 ft | 482 kts | 355° |
| 2026-04-16 13:05 | 35.05205 | 114.78770 | 37042 ft | 484 kts | 355° |
| 2026-04-16 13:05 | 35.11927 | 114.79421 | 37041 ft | 482 kts | 355° |
| 2026-04-16 13:06 | 35.18587 | 114.80070 | 37045 ft | 482 kts | 355° |
| 2026-04-16 13:06 | 35.25258 | 114.80719 | 37033 ft | 481 kts | 355° |
| 2026-04-16 13:07 | 35.31960 | 114.81370 | 37048 ft | 480 kts | 355° |
| 2026-04-16 13:07 | 35.38602 | 114.82018 | 37038 ft | 480 kts | 355° |
| 2026-04-16 13:08 | 35.45234 | 114.82667 | 37039 ft | 479 kts | 355° |
| 2026-04-16 13:08 | 35.51884 | 114.83318 | 37041 ft | 479 kts | 355° |
| 2026-04-16 13:09 | 35.58515 | 114.83968 | 37041 ft | 479 kts | 355° |
| 2026-04-16 13:09 | 35.65187 | 114.84624 | 37033 ft | 479 kts | 355° |
| 2026-04-16 13:10 | 35.71800 | 114.85278 | 37042 ft | 477 kts | 355° |
| 2026-04-16 13:10 | 35.78412 | 114.85925 | 37046 ft | 477 kts | 355° |
| 2026-04-16 13:11 | 35.85003 | 114.86575 | 37046 ft | 476 kts | 355° |
| 2026-04-16 13:11 | 35.91607 | 114.87231 | 37049 ft | 475 kts | 355° |
| 2026-04-16 13:11 | 35.94889 | 114.87556 | 37196 ft | 476 kts | 355° |
| 2026-04-16 13:12 | 35.98179 | 114.87882 | 37118 ft | 475 kts | 355° |
| 2026-04-16 13:12 | 36.04763 | 114.88536 | 37066 ft | 473 kts | 355° |
| 2026-04-16 13:13 | 36.11338 | 114.89188 | 36888 ft | 473 kts | 355° |
| 2026-04-16 13:13 | 36.17847 | 114.89832 | 37024 ft | 473 kts | 355° |
| 2026-04-16 13:14 | 36.24417 | 114.90485 | 37052 ft | 473 kts | 356° |
| 2026-04-16 13:14 | 36.30979 | 114.91140 | 37051 ft | 474 kts | 356° |
| 2026-04-16 13:15 | 36.37545 | 114.91793 | 37059 ft | 474 kts | 356° |
| 2026-04-16 13:15 | 36.44126 | 114.92412 | 37068 ft | 472 kts | 355° |
| 2026-04-16 13:16 | 36.50669 | 114.93005 | 37059 ft | 473 kts | 355° |
| 2026-04-16 13:16 | 36.57244 | 114.93599 | 37068 ft | 473 kts | 355° |
| 2026-04-16 13:17 | 36.63800 | 114.94173 | 37067 ft | 473 kts | 355° |
| 2026-04-16 13:17 | 36.70339 | 114.94711 | 37071 ft | 472 kts | 355° |
| 2026-04-16 13:18 | 36.76887 | 114.95232 | 37078 ft | 471 kts | 355° |
| 2026-04-16 13:18 | 36.83411 | 114.95757 | 37069 ft | 470 kts | 355° |
| 2026-04-16 13:19 | 36.89941 | 114.96266 | 37073 ft | 470 kts | 355° |
| 2026-04-16 13:19 | 36.96449 | 114.96761 | 37082 ft | 470 kts | 355° |
| 2026-04-16 13:20 | 37.02985 | 114.97239 | 37070 ft | 469 kts | 355° |
| 2026-04-16 13:20 | 37.09498 | 114.97697 | 37073 ft | 469 kts | 355° |
| 2026-04-16 13:21 | 37.16023 | 114.98151 | 37071 ft | 469 kts | 355° |
| 2026-04-16 13:21 | 37.22519 | 114.98568 | 37073 ft | 468 kts | 355° |
| 2026-04-16 13:22 | 37.29010 | 114.98968 | 37077 ft | 468 kts | 355° |
| 2026-04-16 13:22 | 37.35527 | 114.99353 | 37072 ft | 467 kts | 355° |
| 2026-04-16 13:23 | 37.41997 | 114.99705 | 37077 ft | 467 kts | 355° |
| 2026-04-16 13:23 | 37.48488 | 115.00027 | 37070 ft | 466 kts | 355° |
| 2026-04-16 13:24 | 37.54987 | 115.00334 | 37029 ft | 467 kts | 355° |
| 2026-04-16 13:24 | 37.58232 | 115.00476 | 37191 ft | 467 kts | 355° |
| 2026-04-16 13:24 | 37.61451 | 115.00613 | 37187 ft | 466 kts | 355° |
| 2026-04-16 13:25 | 37.67909 | 115.00872 | 37108 ft | 465 kts | 355° |
| 2026-04-16 13:25 | 37.74031 | 115.01096 | 37095 ft | 463 kts | 355° |
| 2026-04-16 13:26 | 37.80457 | 115.01313 | 37094 ft | 463 kts | 355° |
| 2026-04-16 13:26 | 37.86883 | 115.01514 | 37095 ft | 464 kts | 355° |
| 2026-04-16 13:27 | 37.93331 | 115.01703 | 37093 ft | 463 kts | 355° |
| 2026-04-16 13:27 | 37.99770 | 115.01866 | 37100 ft | 463 kts | 355° |
| 2026-04-16 13:28 | 38.06208 | 115.02008 | 37106 ft | 462 kts | 355° |
| 2026-04-16 13:28 | 38.12631 | 115.02138 | 37096 ft | 462 kts | 355° |
| 2026-04-16 13:29 | 38.19082 | 115.02373 | 37080 ft | 467 kts | 2° |
| 2026-04-16 13:29 | 38.22282 | 115.03283 | 37083 ft | 476 kts | 14° |
| 2026-04-16 13:29 | 38.25299 | 115.05013 | 37086 ft | 485 kts | 26° |
| 2026-04-16 13:29 | 38.28059 | 115.07541 | 37089 ft | 491 kts | 38° |
| 2026-04-16 13:30 | 38.30418 | 115.10651 | 37095 ft | 494 kts | 46° |
| 2026-04-16 13:30 | 38.34777 | 115.17393 | 37091 ft | 494 kts | 48° |
| 2026-04-16 13:31 | 38.39079 | 115.24216 | 37088 ft | 495 kts | 48° |
| 2026-04-16 13:31 | 38.43396 | 115.31049 | 37086 ft | 495 kts | 48° |
| 2026-04-16 13:32 | 38.47707 | 115.37857 | 37081 ft | 495 kts | 48° |
| 2026-04-16 13:32 | 38.52037 | 115.44682 | 37085 ft | 495 kts | 48° |
| 2026-04-16 13:33 | 38.56351 | 115.51449 | 37077 ft | 495 kts | 47° |
| 2026-04-16 13:33 | 38.60693 | 115.58305 | 37082 ft | 497 kts | 52° |
| 2026-04-16 13:33 | 38.62450 | 115.62156 | 37072 ft | 500 kts | 65° |
| 2026-04-16 13:34 | 38.63573 | 115.66327 | 37086 ft | 502 kts | 77° |
| 2026-04-16 13:34 | 38.64046 | 115.70706 | 37081 ft | 501 kts | 89° |
| 2026-04-16 13:34 | 38.64160 | 115.75176 | 37088 ft | 501 kts | 89° |
| 2026-04-16 13:35 | 38.64496 | 115.84015 | 37090 ft | 500 kts | 88° |
| 2026-04-16 13:35 | 38.64859 | 115.92862 | 37079 ft | 500 kts | 88° |
| 2026-04-16 13:36 | 38.65240 | 116.01708 | 36949 ft | 495 kts | 88° |
| 2026-04-16 13:36 | 38.65435 | 116.06094 | 36499 ft | 492 kts | 88° |
| 2026-04-16 13:36 | 38.65629 | 116.10439 | 35904 ft | 491 kts | 88° |
| 2026-04-16 13:36 | 38.65822 | 116.14758 | 35399 ft | 488 kts | 88° |
| 2026-04-16 13:37 | 38.66011 | 116.19085 | 34845 ft | 486 kts | 88° |
| 2026-04-16 13:37 | 38.66193 | 116.23373 | 34245 ft | 485 kts | 88° |
| 2026-04-16 13:37 | 38.66369 | 116.27632 | 33671 ft | 485 kts | 88° |
| 2026-04-16 13:37 | 38.66547 | 116.31928 | 33062 ft | 486 kts | 88° |
| 2026-04-16 13:38 | 38.66729 | 116.36240 | 32437 ft | 487 kts | 88° |
| 2026-04-16 13:38 | 38.66918 | 116.40547 | 31805 ft | 487 kts | 88° |
| 2026-04-16 13:38 | 38.67109 | 116.44831 | 31166 ft | 487 kts | 87° |
| 2026-04-16 13:38 | 38.67302 | 116.49168 | 30506 ft | 487 kts | 88° |
| 2026-04-16 13:39 | 38.67501 | 116.53449 | 29706 ft | 487 kts | 87° |
| 2026-04-16 13:39 | 38.67702 | 116.57758 | 28858 ft | 488 kts | 88° |
| 2026-04-16 13:39 | 38.67902 | 116.62051 | 27960 ft | 490 kts | 87° |
| 2026-04-16 13:39 | 38.68180 | 116.66437 | 27005 ft | 492 kts | 82° |
| 2026-04-16 13:40 | 38.69087 | 116.70564 | 26279 ft | 488 kts | 65° |
| 2026-04-16 13:40 | 38.70892 | 116.74189 | 25732 ft | 477 kts | 47° |
| 2026-04-16 13:40 | 38.73368 | 116.76917 | 24939 ft | 470 kts | 29° |
| 2026-04-16 13:40 | 38.76302 | 116.78544 | 23883 ft | 466 kts | 11° |
| 2026-04-16 13:41 | 38.79483 | 116.78975 | 23109 ft | 454 kts | 354° |
| 2026-04-16 13:41 | 38.82544 | 116.78273 | 22532 ft | 439 kts | 338° |
| 2026-04-16 13:41 | 38.85240 | 116.76685 | 21939 ft | 428 kts | 328° |
| 2026-04-16 13:41 | 38.87819 | 116.74868 | 21309 ft | 423 kts | 328° |
| 2026-04-16 13:42 | 38.90383 | 116.73057 | 20651 ft | 420 kts | 328° |
| 2026-04-16 13:42 | 38.92941 | 116.71261 | 20009 ft | 415 kts | 328° |
| 2026-04-16 13:42 | 38.95472 | 116.69496 | 19373 ft | 411 kts | 329° |
| 2026-04-16 13:42 | 38.97938 | 116.67782 | 18768 ft | 406 kts | 329° |
| 2026-04-16 13:43 | 39.00414 | 116.66064 | 18169 ft | 401 kts | 329° |
| 2026-04-16 13:43 | 39.02853 | 116.64375 | 17578 ft | 397 kts | 329° |
| 2026-04-16 13:43 | 39.05254 | 116.62712 | 17029 ft | 392 kts | 330° |
| 2026-04-16 13:43 | 39.07762 | 116.61330 | 16422 ft | 390 kts | 340° |
| 2026-04-16 13:44 | 39.10360 | 116.60550 | 15901 ft | 386 kts | 349° |
| 2026-04-16 13:44 | 39.13028 | 116.60097 | 15356 ft | 382 kts | 351° |
| 2026-04-16 13:44 | 39.15619 | 116.59706 | 14825 ft | 377 kts | 351° |
| 2026-04-16 13:44 | 39.18223 | 116.59315 | 14261 ft | 372 kts | 352° |
| 2026-04-16 13:45 | 39.20771 | 116.58929 | 13719 ft | 366 kts | 351° |
| 2026-04-16 13:45 | 39.23289 | 116.58543 | 13168 ft | 362 kts | 352° |
| 2026-04-16 13:45 | 39.25780 | 116.58158 | 12552 ft | 359 kts | 352° |
| 2026-04-16 13:45 | 39.28242 | 116.57775 | 11958 ft | 356 kts | 352° |
| 2026-04-16 13:46 | 39.30692 | 116.57394 | 11366 ft | 353 kts | 352° |
| 2026-04-16 13:46 | 39.33103 | 116.57018 | 10800 ft | 350 kts | 352° |
| 2026-04-16 13:46 | 39.35501 | 116.56646 | 10400 ft | 341 kts | 352° |
| 2026-04-16 13:46 | 39.37800 | 116.56290 | 10053 ft | 332 kts | 352° |
| 2026-04-16 13:47 | 39.40082 | 116.55934 | 9712 ft | 323 kts | 352° |
| 2026-04-16 13:47 | 39.42269 | 116.55593 | 9376 ft | 316 kts | 352° |
| 2026-04-16 13:47 | 39.44420 | 116.55256 | 9045 ft | 308 kts | 352° |
| 2026-04-16 13:47 | 39.46549 | 116.54921 | 8724 ft | 301 kts | 352° |
| 2026-04-16 13:48 | 39.48609 | 116.54597 | 8411 ft | 294 kts | 352° |
| 2026-04-16 13:48 | 39.50618 | 116.54282 | 8105 ft | 288 kts | 353° |
| 2026-04-16 13:48 | 39.52591 | 116.53973 | 7784 ft | 283 kts | 353° |
| 2026-04-16 13:48 | 39.54526 | 116.53669 | 7458 ft | 279 kts | 353° |
| 2026-04-16 13:49 | 39.56447 | 116.53368 | 7146 ft | 274 kts | 353° |
| 2026-04-16 13:49 | 39.58320 | 116.53075 | 6857 ft | 269 kts | 353° |
| 2026-04-16 13:49 | 39.60170 | 116.52785 | 6564 ft | 265 kts | 353° |
| 2026-04-16 13:49 | 39.61988 | 116.52498 | 6199 ft | 264 kts | 353° |
| 2026-04-16 13:50 | 39.63817 | 116.52210 | 5811 ft | 264 kts | 353° |
| 2026-04-16 13:50 | 39.65643 | 116.51923 | 5402 ft | 265 kts | 353° |
| 2026-04-16 13:50 | 39.67474 | 116.51635 | 5033 ft | 264 kts | 353° |
| 2026-04-16 13:50 | 39.69268 | 116.51353 | 4712 ft | 263 kts | 353° |
| 2026-04-16 13:51 | 39.71082 | 116.51067 | 4336 ft | 263 kts | 353° |
| 2026-04-16 13:51 | 39.72892 | 116.50781 | 3993 ft | 263 kts | 353° |
| 2026-04-16 13:51 | 39.74711 | 116.50494 | 3665 ft | 262 kts | 353° |
| 2026-04-16 13:51 | 39.76508 | 116.50211 | 3515 ft | 252 kts | 353° |
| 2026-04-16 13:52 | 39.78200 | 116.49921 | 3427 ft | 240 kts | 346° |
| 2026-04-16 13:52 | 39.79617 | 116.48955 | 3296 ft | 226 kts | 308° |
| 2026-04-16 13:52 | 39.80199 | 116.47134 | 3276 ft | 214 kts | 270° |
| 2026-04-16 13:52 | 39.80062 | 116.45292 | 3185 ft | 202 kts | 259° |
| 2026-04-16 13:53 | 39.79830 | 116.43484 | 2857 ft | 205 kts | 259° |
| 2026-04-16 13:53 | 39.79615 | 116.41653 | 2551 ft | 206 kts | 261° |
| 2026-04-16 13:53 | 39.79417 | 116.39812 | 2249 ft | 207 kts | 262° |
| 2026-04-16 13:53 | 39.79233 | 116.37978 | 2086 ft | 200 kts | 263° |
| 2026-04-16 13:54 | 39.78998 | 116.36259 | 1922 ft | 191 kts | 242° |
| 2026-04-16 13:54 | 39.78136 | 116.35053 | 1879 ft | 181 kts | 202° |
| 2026-04-16 13:54 | 39.76923 | 116.34747 | 1896 ft | 180 kts | 179° |
| 2026-04-16 13:54 | 39.75663 | 116.34857 | 1934 ft | 179 kts | 173° |
| 2026-04-16 13:55 | 39.74417 | 116.35072 | 1969 ft | 180 kts | 172° |
| 2026-04-16 13:55 | 39.73191 | 116.35295 | 1911 ft | 179 kts | 171° |
| 2026-04-16 13:55 | 39.71956 | 116.35512 | 1887 ft | 176 kts | 172° |
| 2026-04-16 13:55 | 39.70792 | 116.35708 | 1848 ft | 157 kts | 172° |
| 2026-04-16 13:56 | 39.69733 | 116.35880 | 1851 ft | 153 kts | 171° |
| 2026-04-16 13:56 | 39.68678 | 116.36049 | 1867 ft | 155 kts | 171° |
| 2026-04-16 13:56 | 39.67604 | 116.36219 | 1884 ft | 150 kts | 172° |
| 2026-04-16 13:56 | 39.66597 | 116.36378 | 1871 ft | 145 kts | 172° |
| 2026-04-16 13:57 | 39.65590 | 116.36536 | 1873 ft | 144 kts | 172° |
| 2026-04-16 13:57 | 39.64596 | 116.36692 | 1874 ft | 144 kts | 172° |
| 2026-04-16 13:57 | 39.63595 | 116.36849 | 1876 ft | 144 kts | 172° |
| 2026-04-16 13:58 | 39.61591 | 116.37164 | 1880 ft | 144 kts | 171° |
| 2026-04-16 13:58 | 39.60599 | 116.37321 | 1832 ft | 145 kts | 172° |
| 2026-04-16 13:58 | 39.59607 | 116.37477 | 1646 ft | 144 kts | 172° |
| 2026-04-16 13:58 | 39.58611 | 116.37635 | 1453 ft | 143 kts | 172° |
| 2026-04-16 13:59 | 39.57654 | 116.37787 | 1271 ft | 143 kts | 171° |
| 2026-04-16 13:59 | 39.56665 | 116.37943 | 1084 ft | 142 kts | 172° |
| 2026-04-16 13:59 | 39.55677 | 116.38107 | 893 ft | 142 kts | 171° |
| 2026-04-16 13:59 | 39.54705 | 116.38265 | 694 ft | 141 kts | 172° |
| 2026-04-16 14:00 | 39.53719 | 116.38410 | 537 ft | 142 kts | 172° |
| 2026-04-16 14:00 | 39.52753 | 116.38573 | 327 ft | 140 kts | 172° |
| 2026-04-16 14:00 | 39.51785 | 116.38724 | 151 ft | 138 kts | 172° |
| 2026-04-16 14:00 | 39.50857 | 116.38872 | 91 ft | 120 kts | 173° |
| 2026-04-16 14:01 | 39.50194 | 116.38976 | 91 ft | 71 kts | 173° |
| 2026-04-16 14:01 | 39.49814 | 116.39033 | 91 ft | 41 kts | 173° |
| 2026-04-16 14:01 | 39.49553 | 116.39077 | 91 ft | 31 kts | 173° |
| 2026-04-16 14:01 | 39.49398 | 116.39143 | 90 ft | 21 kts | 156° |
| 2026-04-16 14:02 | 39.49269 | 116.39237 | 91 ft | 20 kts | 143° |
| 2026-04-16 14:02 | 39.49162 | 116.39339 | 90 ft | 14 kts | 144° |
| 2026-04-16 14:02 | 39.49140 | 116.39461 | 90 ft | 15 kts | 83° |
| 2026-04-16 14:02 | 39.49152 | 116.39597 | 90 ft | 15 kts | 83° |
| 2026-04-16 14:03 | 39.49164 | 116.39735 | 90 ft | 15 kts | 82° |
| 2026-04-16 14:03 | 39.49178 | 116.39877 | 91 ft | 15 kts | 82° |
| 2026-04-16 14:03 | 39.49193 | 116.40018 | 91 ft | 16 kts | 83° |
| 2026-04-16 14:03 | 39.49206 | 116.40158 | 90 ft | 14 kts | 83° |
| 2026-04-16 14:04 | 39.49254 | 116.40232 | 90 ft | 12 kts | 0° |
| 2026-04-16 14:04 | 39.49340 | 116.40222 | 91 ft | 12 kts | 353° |
| 2026-04-16 14:04 | 39.49432 | 116.40208 | 90 ft | 13 kts | 352° |
| 2026-04-16 14:04 | 39.49530 | 116.40192 | 90 ft | 14 kts | 353° |
| 2026-04-16 14:05 | 39.49634 | 116.40176 | 91 ft | 15 kts | 353° |
| 2026-04-16 14:05 | 39.49742 | 116.40158 | 90 ft | 15 kts | 353° |
| 2026-04-16 14:05 | 39.49852 | 116.40141 | 91 ft | 16 kts | 352° |
| 2026-04-16 14:05 | 39.49942 | 116.40127 | 91 ft | 11 kts | 353° |
| 2026-04-16 14:06 | 39.50007 | 116.40144 | 90 ft | 10 kts | 48° |
| 2026-04-16 14:06 | 39.50023 | 116.40241 | 91 ft | 11 kts | 84° |
| 2026-04-16 14:06 | 39.50033 | 116.40351 | 91 ft | 12 kts | 83° |
| 2026-04-16 14:06 | 39.50044 | 116.40470 | 91 ft | 13 kts | 83° |
| 2026-04-16 14:07 | 39.50053 | 116.40582 | 91 ft | 11 kts | 83° |
| 2026-04-16 14:07 | 39.50063 | 116.40685 | 90 ft | 11 kts | 82° |
| 2026-04-16 14:07 | 39.50072 | 116.40774 | 91 ft | 8 kts | 81° |
| 2026-04-16 14:07 | 39.50093 | 116.40816 | 90 ft | 5 kts | 38° |
| 2026-04-16 14:08 | 39.50132 | 116.40825 | 91 ft | 5 kts | 355° |
| 2026-04-16 14:08 | 39.50173 | 116.40819 | 90 ft | 6 kts | 353° |
| 2026-04-16 14:08 | 39.50216 | 116.40813 | 90 ft | 6 kts | 353° |
| 2026-04-16 14:08 | 39.50270 | 116.40805 | 91 ft | 9 kts | 353° |
| 2026-04-16 14:09 | 39.50339 | 116.40794 | 90 ft | 10 kts | 353° |
| 2026-04-16 14:09 | 39.50392 | 116.40810 | 90 ft | 8 kts | 54° |
| 2026-04-16 14:09 | 39.50412 | 116.40878 | 90 ft | 8 kts | 72° |
| 2026-04-16 14:09 | 39.50428 | 116.40942 | 91 ft | 5 kts | 71° |
| 2026-04-16 14:10 | 39.50436 | 116.40973 | 91 ft | 2 kts | 72° |
| 2026-04-16 14:10 | 39.50438 | 116.40981 | 90 ft | 0 kts | 72° |
| 2026-04-16 14:10 | 39.50439 | 116.40986 | 90 ft | 0 kts | 72° |
| 2026-04-16 14:10 | 39.50440 | 116.40988 | 91 ft | 0 kts | 72° |
| 2026-04-16 14:11 | 39.50440 | 116.40990 | 90 ft | 0 kts | 73° |
| 2026-04-16 14:11 | 39.50441 | 116.40992 | 90 ft | 0 kts | 73° |